Time;durP1;ratioP1;P1;durP2;ratioP2;P2;SDS_P1;SDS_P2;PMS_P1;PMS_P2;Temp;Humidity;BMP_temperature;BMP_pressure;BME280_temperature;BME280_humidity;BME280_pressure;Samples;Min_cycle;Max_cycle;Signal;HPM_P1;HPM_P2
2023/04/08 00:00:44;;;;;;;9.77;7.07;;;;;;;7.13;72.73;100387.88;6151891;22;100334;-93
2023/04/08 00:03:09;;;;;;;8.90;7.37;;;;;;;7.41;72.62;100438.66;6152242;22;96661;-93
2023/04/08 00:05:35;;;;;;;8.30;7.10;;;;;;;7.44;73.00;100442.97;6151052;22;96794;-94
2023/04/08 00:08:00;;;;;;;9.63;7.38;;;;;;;7.17;72.77;100397.34;6125914;22;100166;-94
2023/04/08 00:10:26;;;;;;;9.52;7.20;;;;;;;7.24;72.73;100410.28;6176844;22;97941;-94
2023/04/08 00:12:52;;;;;;;10.27;7.78;;;;;;;7.41;72.76;100437.81;6151523;22;96974;-93
2023/04/08 00:15:17;;;;;;;9.75;7.60;;;;;;;7.44;72.41;100445.56;6128125;22;96826;-94
2023/04/08 00:17:44;;;;;;;9.82;7.85;;;;;;;7.18;72.78;100399.06;6151604;22;100414;-94
2023/04/08 00:20:10;;;;;;;9.55;7.05;;;;;;;7.10;72.98;100377.47;6127158;22;101369;-93
2023/04/08 00:22:36;;;;;;;10.35;7.13;;;;;;;6.96;72.98;100367.28;6126943;22;97445;-94
2023/04/08 00:25:01;;;;;;;10.82;8.15;;;;;;;7.09;72.89;100380.97;6152141;22;97180;-93
2023/04/08 00:27:27;;;;;;;11.27;8.32;;;;;;;7.31;72.68;100428.44;6152566;22;98167;-93
2023/04/08 00:29:53;;;;;;;11.95;8.60;;;;;;;7.16;73.05;100393.88;6128034;22;101070;-94
2023/04/08 00:32:18;;;;;;;11.15;8.63;;;;;;;7.16;73.14;100393.03;6153554;22;97264;-93
2023/04/08 00:34:44;;;;;;;10.07;8.23;;;;;;;7.24;72.63;100407.66;6153904;22;97118;-95
2023/04/08 00:37:09;;;;;;;10.98;9.05;;;;;;;7.07;73.14;100378.41;6165599;22;98245;-94
2023/04/08 00:39:36;;;;;;;10.93;8.00;;;;;;;7.01;73.29;100383.72;6172527;22;98296;-93
2023/04/08 00:42:02;;;;;;;10.02;8.05;;;;;;;7.00;73.15;100377.63;6138863;22;96593;-92
2023/04/08 00:44:28;;;;;;;11.30;8.52;;;;;;;7.30;73.08;100426.69;6128194;22;96745;-93
2023/04/08 00:46:54;;;;;;;12.23;8.83;;;;;;;7.28;73.03;100431.97;6152530;22;101011;-94
2023/04/08 00:49:19;;;;;;;11.48;9.07;;;;;;;7.30;72.92;100422.34;6152794;22;100017;-93
2023/04/08 00:51:45;;;;;;;11.63;8.77;;;;;;;7.32;73.24;100435.38;6128623;22;97035;-92
2023/04/08 00:54:10;;;;;;;12.27;10.23;;;;;;;7.34;73.27;100434.44;6153181;22;96737;-93
2023/04/08 00:56:36;;;;;;;16.40;10.88;;;;;;;7.28;73.31;100418.06;6153318;22;100971;-93
2023/04/08 00:59:05;;;;;;;15.77;11.07;;;;;;;7.33;73.37;100444.91;6150892;22;100198;-94
2023/04/08 01:01:40;;;;;;;16.48;11.95;;;;;;;7.45;73.56;100463.00;6127610;22;96740;-93
2023/04/08 01:04:21;;;;;;;14.63;12.40;;;;;;;7.43;73.61;100456.91;6178433;22;96726;-93
2023/04/08 01:07:08;;;;;;;17.38;13.32;;;;;;;7.26;73.80;100436.34;6178313;22;100855;-92
2023/04/08 01:09:37;;;;;;;15.85;12.55;;;;;;;7.49;73.72;100467.25;6152253;22;99355;-93
2023/04/08 01:12:08;;;;;;;16.33;13.02;;;;;;;7.46;73.71;100469.94;6152395;22;97653;-92
2023/04/08 01:14:38;;;;;;;19.05;13.95;;;;;;;7.25;73.96;100455.53;6178882;22;96725;-94
2023/04/08 01:17:03;;;;;;;20.75;13.82;;;;;;;7.28;73.54;100444.16;6125335;22;101257;-92
2023/04/08 01:19:36;;;;;;;20.70;14.25;;;;;;;7.23;73.86;100445.09;6151763;22;101521;-93
2023/04/08 01:22:11;;;;;;;21.70;14.57;;;;;;;7.37;74.12;100472.72;6177901;22;96713;-92
2023/04/08 01:24:39;;;;;;;18.00;13.93;;;;;;;7.07;74.48;100428.00;6204059;22;96781;-93
2023/04/08 01:27:06;;;;;;;20.83;14.82;;;;;;;7.19;74.69;100453.88;6127557;22;101444;-93
2023/04/08 01:29:33;;;;;;;22.70;15.82;;;;;;;7.22;74.48;100451.22;6153347;22;98351;-93
2023/04/08 01:32:00;;;;;;;20.80;15.55;;;;;;;6.96;75.13;100422.09;6127153;22;97258;-93
2023/04/08 01:34:28;;;;;;;21.20;14.50;;;;;;;7.02;74.83;100430.69;6126777;22;97053;-95
2023/04/08 01:36:56;;;;;;;20.67;14.82;;;;;;;7.17;74.57;100468.69;6151920;22;100292;-93
2023/04/08 01:39:22;;;;;;;20.60;15.63;;;;;;;6.88;75.46;100432.66;6177648;22;97796;-93
2023/04/08 01:41:47;;;;;;;21.40;14.60;;;;;;;6.90;75.41;100427.44;6128796;22;96598;-93
2023/04/08 01:44:14;;;;;;;21.80;14.40;;;;;;;6.66;75.13;100411.31;6128279;22;97252;-94
2023/04/08 01:46:40;;;;;;;18.97;14.63;;;;;;;6.68;75.46;100419.09;6128071;22;101783;-93
2023/04/08 01:49:06;;;;;;;20.27;14.32;;;;;;;7.10;75.10;100487.97;6152046;22;101245;-93
2023/04/08 01:51:36;;;;;;;22.33;15.13;;;;;;;7.00;75.25;100461.16;6151298;22;96728;-93
2023/04/08 01:54:01;;;;;;;18.23;13.95;;;;;;;6.88;74.92;100443.09;6177642;22;97424;-93
2023/04/08 01:56:28;;;;;;;20.65;15.30;;;;;;;6.98;74.82;100460.34;6128190;22;101478;-94
2023/04/08 01:58:57;;;;;;;18.93;14.47;;;;;;;7.25;74.69;100502.53;6127027;22;101098;-93
2023/04/08 02:01:24;;;;;;;21.38;14.60;;;;;;;7.18;73.85;100501.75;6177005;22;97154;-94
2023/04/08 02:03:55;;;;;;;22.02;15.65;;;;;;;6.83;72.88;100475.38;6128004;22;97350;-94
2023/04/08 02:06:23;;;;;;;25.67;15.93;;;;;;;6.78;73.58;100519.81;6154386;22;100293;-93
2023/04/08 02:08:48;;;;;;;24.58;16.08;;;;;;;6.47;73.59;100467.25;6124720;22;99734;-93
2023/04/08 02:11:14;;;;;;;23.53;16.70;;;;;;;6.74;73.56;100512.91;6202728;22;96655;-93
2023/04/08 02:13:40;;;;;;;23.67;16.40;;;;;;;6.63;72.88;100494.81;6152873;22;96670;-94
2023/04/08 02:16:23;;;;;;;23.50;16.37;;;;;;;6.39;73.29;100456.91;6152975;22;99983;-93
2023/04/08 02:18:56;;;;;;;21.50;16.07;;;;;;;6.66;72.62;100493.91;6153261;22;101385;-93
2023/04/08 02:21:26;;;;;;;18.80;14.37;;;;;;;6.77;72.72;100525.91;6153338;22;96731;-94
2023/04/08 02:23:53;;;;;;;19.83;14.47;;;;;;;6.69;73.08;100514.72;6125917;22;96827;-93
2023/04/08 02:26:21;;;;;;;21.40;14.97;;;;;;;6.78;72.42;100525.03;6151072;22;101638;-95
2023/04/08 02:28:48;;;;;;;21.30;14.90;;;;;;;6.82;72.14;100533.69;6127113;22;100113;-93
2023/04/08 02:31:16;;;;;;;20.52;14.27;;;;;;;6.77;71.96;100534.59;6127555;22;96730;-95
2023/04/08 02:33:44;;;;;;;18.13;13.47;;;;;;;6.69;72.03;100532.97;6128588;22;96754;-94
2023/04/08 02:36:11;;;;;;;16.90;13.20;;;;;;;6.27;72.06;100471.00;6152654;22;101365;-94
2023/04/08 02:38:37;;;;;;;19.57;13.47;;;;;;;6.21;72.06;100472.84;6152350;22;101232;-93
2023/04/08 02:41:02;;;;;;;17.27;12.97;;;;;;;6.31;71.76;100480.50;6125153;22;97172;-94
2023/04/08 02:43:31;;;;;;;18.07;12.77;;;;;;;6.43;71.59;100489.91;6152050;22;97158;-94
2023/04/08 02:46:03;;;;;;;17.43;13.07;;;;;;;6.68;71.67;100546.91;6177138;22;101187;-94
2023/04/08 02:48:29;;;;;;;15.13;12.20;;;;;;;6.60;71.43;100531.38;6152618;22;100035;-94
2023/04/08 02:50:56;;;;;;;16.93;12.20;;;;;;;6.64;72.04;100553.94;6177183;22;96651;-94
2023/04/08 02:53:22;;;;;;;19.60;13.30;;;;;;;6.74;71.63;100558.13;6127349;22;96796;-94
2023/04/08 02:55:48;;;;;;;18.00;12.90;;;;;;;6.66;71.12;100556.50;6152990;22;100291;-94
2023/04/08 02:58:14;;;;;;;17.73;13.50;;;;;;;6.44;71.33;100517.69;6124686;22;99976;-94
2023/04/08 03:00:40;;;;;;;16.83;12.30;;;;;;;6.73;71.47;100566.00;6181816;22;96776;-94
2023/04/08 03:03:06;;;;;;;16.47;11.60;;;;;;;6.60;71.14;100546.16;6157717;22;97412;-94
2023/04/08 03:05:31;;;;;;;15.47;11.03;;;;;;;6.31;70.95;100511.81;6157891;22;101022;-93
2023/04/08 03:07:57;;;;;;;17.57;12.53;;;;;;;6.49;71.29;100536.75;6132747;22;101252;-95
2023/04/08 03:10:23;;;;;;;17.97;12.33;;;;;;;6.51;71.14;100536.72;6156735;22;97241;-94
2023/04/08 03:12:48;;;;;;;18.37;12.17;;;;;;;6.36;70.93;100506.50;6157529;22;96887;-94
2023/04/08 03:15:14;;;;;;;16.37;12.50;;;;;;;6.46;70.89;100528.13;6129428;22;101115;-94
2023/04/08 03:17:40;;;;;;;16.53;11.77;;;;;;;6.43;70.57;100518.59;6131801;22;101319;-95
2023/04/08 03:20:06;;;;;;;15.57;11.40;;;;;;;6.50;70.73;100522.81;6132522;22;96801;-94
2023/04/08 03:22:32;;;;;;;17.03;12.10;;;;;;;6.51;70.63;100529.75;6132283;22;96833;-93
2023/04/08 03:24:58;;;;;;;17.63;12.17;;;;;;;6.73;70.51;100564.25;6183204;22;101009;-94
2023/04/08 03:27:24;;;;;;;13.93;11.67;;;;;;;6.73;70.89;100582.50;6132111;22;101016;-93
2023/04/08 03:29:50;;;;;;;16.40;11.90;;;;;;;6.34;70.56;100509.16;6132843;22;96702;-94
2023/04/08 03:32:15;;;;;;;16.40;12.23;;;;;;;6.33;70.06;100509.16;6132925;22;96794;-93
2023/04/08 03:34:41;;;;;;;15.10;11.37;;;;;;;6.75;69.85;100591.19;6156648;22;100062;-94
2023/04/08 03:37:07;;;;;;;14.40;11.30;;;;;;;6.64;69.86;100563.50;6156373;22;101517;-94
2023/04/08 03:39:32;;;;;;;14.97;11.43;;;;;;;6.33;69.72;100523.03;6155997;22;97353;-93
2023/04/08 03:41:59;;;;;;;15.47;11.13;;;;;;;6.53;69.90;100574.09;6132721;22;97272;-93
2023/04/08 03:44:25;;;;;;;15.30;11.87;;;;;;;6.44;70.16;100559.44;6131983;22;100467;-93
2023/04/08 03:46:51;;;;;;;16.70;11.47;;;;;;;6.66;69.75;100593.03;6157758;22;99991;-93
2023/04/08 03:49:17;;;;;;;14.70;10.97;;;;;;;6.44;69.60;100553.34;6180027;22;96604;-94
2023/04/08 03:51:42;;;;;;;15.53;11.63;;;;;;;6.47;69.34;100568.97;6131538;22;96640;-93
2023/04/08 03:54:08;;;;;;;15.60;11.60;;;;;;;6.33;69.27;100543.06;6156642;22;97614;-94
2023/04/08 03:56:34;;;;;;;19.08;12.18;;;;;;;6.33;69.44;100564.75;6183027;22;98226;-93
2023/04/08 03:58:59;;;;;;;14.47;11.53;;;;;;;6.56;69.56;100608.81;6157593;22;96734;-94
2023/04/08 04:01:25;;;;;;;15.17;11.53;;;;;;;6.28;69.80;100570.91;6202533;22;96807;-93
2023/04/08 04:03:50;;;;;;;14.13;10.93;;;;;;;6.30;69.66;100563.94;6150787;22;100961;-94
2023/04/08 04:06:16;;;;;;;14.17;10.87;;;;;;;6.61;68.79;100602.69;6150119;22;101552;-93
2023/04/08 04:08:42;;;;;;;14.57;10.97;;;;;;;6.63;69.18;100614.78;6150894;22;97178;-94
2023/04/08 04:11:07;;;;;;;17.83;12.17;;;;;;;6.50;68.73;100603.69;6126808;22;96999;-94
2023/04/08 04:13:33;;;;;;;15.80;12.30;;;;;;;6.61;68.28;100618.34;6152025;22;99731;-94
2023/04/08 04:15:58;;;;;;;18.07;12.57;;;;;;;6.52;69.17;100627.16;6152635;22;101531;-94
2023/04/08 04:18:24;;;;;;;15.00;11.40;;;;;;;6.65;68.25;100627.84;6154990;22;97106;-93
2023/04/08 04:20:49;;;;;;;15.03;11.30;;;;;;;6.54;68.62;100610.59;6128427;22;96652;-94
2023/04/08 04:23:15;;;;;;;14.13;11.27;;;;;;;6.43;68.37;100612.47;6150197;22;101325;-94
2023/04/08 04:25:41;;;;;;;14.87;11.03;;;;;;;6.30;68.68;100608.28;6177320;22;98283;-94
2023/04/08 04:28:08;;;;;;;14.87;11.60;;;;;;;6.28;68.48;100613.53;6125499;22;96659;-94
2023/04/08 04:30:38;;;;;;;17.17;11.25;;;;;;;6.47;68.70;100658.47;6151887;22;97168;-94
2023/04/08 04:33:04;;;;;;;15.03;11.77;;;;;;;6.14;68.71;100607.59;6126232;22;101256;-95
2023/04/08 04:35:30;;;;;;;16.40;11.33;;;;;;;6.22;68.74;100613.56;6126861;22;100850;-93
2023/04/08 04:37:55;;;;;;;15.93;11.87;;;;;;;6.26;69.09;100636.13;6126650;22;96612;-93
2023/04/08 04:40:21;;;;;;;16.43;12.40;;;;;;;6.33;69.02;100645.59;6149217;22;96884;-94
2023/04/08 04:42:46;;;;;;;17.03;12.03;;;;;;;6.15;69.16;100604.09;6150740;22;101511;-92
2023/04/08 04:45:12;;;;;;;18.17;12.43;;;;;;;6.39;68.90;100644.66;6177727;22;97177;-93
2023/04/08 04:47:38;;;;;;;14.60;11.30;;;;;;;6.32;68.64;100637.81;6126899;22;98001;-94
2023/04/08 04:50:04;;;;;;;17.10;12.03;;;;;;;6.45;69.09;100683.72;6127111;22;96956;-93
2023/04/08 04:52:30;;;;;;;15.13;11.93;;;;;;;6.23;69.42;100638.78;6126328;22;100258;-93
2023/04/08 04:54:58;;;;;;;16.80;12.00;;;;;;;6.15;69.43;100631.91;6158094;22;96693;-94
2023/04/08 04:57:24;;;;;;;16.53;11.77;;;;;;;6.22;69.14;100634.41;6132391;22;96659;-92
2023/04/08 04:59:50;;;;;;;19.37;12.27;;;;;;;6.49;68.75;100680.22;6126522;22;97054;-93
2023/04/08 05:02:15;;;;;;;18.90;12.90;;;;;;;6.19;69.02;100629.25;6150913;22;101574;-94
2023/04/08 05:04:41;;;;;;;16.23;12.35;;;;;;;6.25;68.53;100633.53;6151596;22;102019;-93
2023/04/08 05:07:07;;;;;;;17.10;11.83;;;;;;;6.20;68.49;100643.16;6151972;22;96904;-93
2023/04/08 05:09:32;;;;;;;16.40;11.97;;;;;;;6.48;68.67;100693.25;6152627;22;96702;-93
2023/04/08 05:11:58;;;;;;;16.93;12.40;;;;;;;6.30;68.39;100658.66;6127833;22;100922;-93
2023/04/08 05:14:23;;;;;;;15.73;11.50;;;;;;;6.28;68.34;100660.44;6151518;22;100153;-93
2023/04/08 05:16:49;;;;;;;15.48;11.93;;;;;;;6.50;68.21;100705.41;6177917;22;96694;-93
2023/04/08 05:19:14;;;;;;;16.57;12.07;;;;;;;6.44;68.10;100710.69;6152425;22;97223;-93
2023/04/08 05:21:40;;;;;;;16.77;11.67;;;;;;;6.38;68.18;100726.41;6153243;22;101769;-93
2023/04/08 05:24:06;;;;;;;14.27;10.77;;;;;;;6.07;68.15;100687.59;6178107;22;101249;-94
2023/04/08 05:26:31;;;;;;;15.73;11.93;;;;;;;6.27;68.39;100710.00;6128291;22;96639;-94
2023/04/08 05:28:57;;;;;;;15.33;11.60;;;;;;;5.97;67.94;100675.53;6125400;22;97402;-93
2023/04/08 05:31:23;;;;;;;16.23;11.63;;;;;;;6.30;68.11;100729.06;6126618;22;101487;-94
2023/04/08 05:33:48;;;;;;;15.27;12.00;;;;;;;6.12;67.94;100698.84;6127986;22;101561;-94
2023/04/08 05:36:14;;;;;;;12.53;9.97;;;;;;;6.32;68.19;100727.31;6152977;22;96669;-94
2023/04/08 05:38:42;;;;;;;13.10;10.50;;;;;;;5.93;67.75;100683.34;6152365;22;96712;-93
2023/04/08 05:41:07;;;;;;;13.30;9.90;;;;;;;6.16;67.30;100717.91;6152362;22;101328;-92
2023/04/08 05:43:33;;;;;;;13.07;9.80;;;;;;;5.95;67.34;100689.44;6127711;22;101315;-92
2023/04/08 05:45:58;;;;;;;13.27;10.10;;;;;;;6.33;67.54;100736.00;6128299;22;96668;-94
2023/04/08 05:48:24;;;;;;;12.50;10.43;;;;;;;6.16;67.05;100706.63;6149639;22;97127;-94
2023/04/08 05:50:50;;;;;;;14.37;10.93;;;;;;;6.02;67.29;100699.81;6152025;22;99783;-94
2023/04/08 05:53:15;;;;;;;15.80;10.83;;;;;;;6.04;67.22;100713.69;6175254;22;96906;-93
2023/04/08 05:55:41;;;;;;;14.43;11.13;;;;;;;5.95;67.58;100698.13;6153531;22;96703;-91
2023/04/08 05:58:07;;;;;;;16.53;11.57;;;;;;;6.11;67.31;100704.09;6178290;22;96753;-93
2023/04/08 06:00:32;;;;;;;14.80;11.23;;;;;;;6.23;67.18;100730.03;6154844;22;100184;-92
2023/04/08 06:02:58;;;;;;;13.87;10.13;;;;;;;6.21;66.32;100717.88;6157380;22;101121;-92
2023/04/08 06:05:24;;;;;;;14.20;11.10;;;;;;;6.04;66.25;100697.19;6129933;22;97309;-92
2023/04/08 06:07:49;;;;;;;14.07;10.43;;;;;;;6.03;66.34;100698.06;6156979;22;97181;-92
2023/04/08 06:10:15;;;;;;;14.27;11.17;;;;;;;5.99;66.29;100689.44;6132375;22;101157;-93
2023/04/08 06:12:40;;;;;;;12.30;10.77;;;;;;;6.16;66.17;100727.47;6132638;22;100876;-91
2023/04/08 06:15:09;;;;;;;14.33;11.13;;;;;;;6.02;66.10;100688.50;6133076;22;97158;-91
2023/04/08 06:17:38;;;;;;;15.87;10.53;;;;;;;5.93;65.33;100691.16;6138931;22;97961;-93
2023/04/08 06:20:10;;;;;;;12.90;10.20;;;;;;;6.21;65.22;100768.28;6158940;22;100978;-93
2023/04/08 06:22:35;;;;;;;;;;;;;;;6.18;65.38;100776.13;6180774;22;100352;-92
2023/04/08 06:25:01;;;;;;;12.10;9.83;;;;;;;5.90;64.98;100723.31;6182950;22;96634;-93
2023/04/08 06:27:27;;;;;;;14.60;10.37;;;;;;;6.17;64.72;100783.94;6157987;22;97061;-93
2023/04/08 06:29:52;;;;;;;12.97;10.53;;;;;;;5.80;65.14;100721.69;6132864;22;99767;-92
2023/04/08 06:32:18;;;;;;;13.53;10.50;;;;;;;6.00;65.29;100751.09;6132679;22;100794;-92
2023/04/08 06:34:44;;;;;;;15.77;11.17;;;;;;;6.30;65.19;100798.59;6157833;22;97132;-92
2023/04/08 06:37:10;;;;;;;14.30;11.83;;;;;;;5.94;64.85;100732.91;6132784;22;97054;-92
2023/04/08 06:39:35;;;;;;;15.40;11.47;;;;;;;6.34;64.73;100800.31;6129785;22;100251;-91
2023/04/08 06:42:01;;;;;;;15.17;11.23;;;;;;;6.30;64.75;100794.25;6156378;22;101093;-92
2023/04/08 06:44:37;;;;;;;15.57;11.40;;;;;;;6.08;65.00;100745.81;6136568;22;96776;-92
2023/04/08 06:47:02;;;;;;;13.60;10.97;;;;;;;6.03;64.25;100760.63;6158812;22;96781;-93
2023/04/08 06:49:29;;;;;;;16.70;13.37;;;;;;;6.10;64.66;100767.50;6157268;22;99902;-93
2023/04/08 06:51:55;;;;;;;16.70;13.10;;;;;;;6.04;64.73;100757.97;6133626;22;101666;-93
2023/04/08 06:54:21;;;;;;;23.10;13.77;;;;;;;6.09;64.87;100755.34;6156895;22;96777;-92
2023/04/08 06:56:46;;;;;;;16.63;12.53;;;;;;;6.16;64.34;100762.22;6157140;22;97307;-93
2023/04/08 06:59:12;;;;;;;15.27;12.07;;;;;;;6.15;64.56;100770.94;6180917;22;98405;-93
2023/04/08 07:01:38;;;;;;;16.07;12.60;;;;;;;6.50;64.57;100808.88;6124469;22;100145;-92
2023/04/08 07:04:03;;;;;;;16.50;12.40;;;;;;;6.67;64.04;100800.88;6152125;22;96704;-92
2023/04/08 07:06:29;;;;;;;16.93;12.50;;;;;;;6.55;63.38;100771.41;6152030;22;96964;-91
2023/04/08 07:08:54;;;;;;;14.77;11.73;;;;;;;6.60;63.24;100781.78;6150134;22;101550;-93
2023/04/08 07:11:20;;;;;;;18.00;13.27;;;;;;;6.86;63.25;100825.00;6152061;22;101562;-92
2023/04/08 07:13:46;;;;;;;17.77;12.40;;;;;;;6.91;63.46;100836.28;6127707;22;96789;-92
2023/04/08 07:16:12;;;;;;;15.63;12.20;;;;;;;6.60;63.01;100775.72;6152859;22;96884;-93
2023/04/08 07:18:37;;;;;;;16.97;13.10;;;;;;;6.81;63.33;100809.44;6151140;22;98484;-92
2023/04/08 07:21:03;;;;;;;19.47;13.93;;;;;;;6.76;63.40;100809.47;6127587;22;101292;-92
2023/04/08 07:23:28;;;;;;;17.47;12.83;;;;;;;6.64;62.76;100800.91;6127170;22;96766;-93
2023/04/08 07:25:54;;;;;;;17.27;13.20;;;;;;;6.82;63.19;100839.84;6127904;22;96757;-93
2023/04/08 07:28:20;;;;;;;15.70;12.57;;;;;;;6.51;63.26;100769.72;6124750;22;101285;-91
2023/04/08 07:30:46;;;;;;;13.87;11.97;;;;;;;6.73;62.40;100812.09;6151471;22;100989;-92
2023/04/08 07:33:11;;;;;;;15.70;12.17;;;;;;;6.78;61.97;100828.59;6127264;22;97184;-92
2023/04/08 07:35:37;;;;;;;15.73;12.60;;;;;;;6.88;62.65;100844.16;6152379;22;97631;-93
2023/04/08 07:38:03;;;;;;;17.37;12.57;;;;;;;6.78;62.63;100841.63;6130332;22;100453;-92
2023/04/08 07:40:29;;;;;;;14.70;11.20;;;;;;;6.68;62.86;100828.69;6130046;22;99785;-92
2023/04/08 07:42:55;;;;;;;14.33;10.47;;;;;;;7.03;61.98;100870.06;6128932;22;96739;-93
2023/04/08 07:45:20;;;;;;;14.23;10.57;;;;;;;6.71;61.38;100829.50;6126122;22;96794;-92
2023/04/08 07:47:46;;;;;;;16.50;10.80;;;;;;;6.54;61.27;100811.44;6151096;22;97345;-92
2023/04/08 07:50:12;;;;;;;13.37;9.73;;;;;;;6.82;61.47;100842.47;6152555;22;100066;-94
2023/04/08 07:52:37;;;;;;;13.53;10.17;;;;;;;7.07;61.22;100874.41;6126705;22;96739;-92
2023/04/08 07:55:04;;;;;;;14.40;9.70;;;;;;;6.94;60.53;100841.47;6127773;22;96984;-93
2023/04/08 07:57:30;;;;;;;12.93;9.90;;;;;;;6.99;61.13;100881.44;6151422;22;100379;-93
2023/04/08 07:59:56;;;;;;;12.77;10.33;;;;;;;6.75;61.10;100825.16;6150738;22;101107;-93
2023/04/08 08:02:22;;;;;;;14.17;10.53;;;;;;;6.70;61.36;100827.78;6126265;22;96881;-93
2023/04/08 08:04:47;;;;;;;14.60;9.40;;;;;;;6.92;61.19;100861.47;6151582;22;96848;-93
2023/04/08 08:07:13;;;;;;;12.73;10.10;;;;;;;7.11;61.17;100877.84;6127124;22;101007;-93
2023/04/08 08:09:39;;;;;;;13.40;9.90;;;;;;;6.88;60.59;100860.66;6151313;22;101403;-93
2023/04/08 08:12:04;;;;;;;13.67;11.03;;;;;;;6.71;61.28;100839.09;6127572;22;96638;-93
2023/04/08 08:14:30;;;;;;;12.93;11.10;;;;;;;6.84;61.38;100845.06;6151937;22;96772;-94
2023/04/08 08:16:55;;;;;;;13.37;11.00;;;;;;;7.09;61.33;100898.72;6150038;22;99988;-94
2023/04/08 08:19:21;;;;;;;13.00;10.13;;;;;;;6.78;61.13;100856.44;6126314;22;101470;-94
2023/04/08 08:21:47;;;;;;;12.48;9.63;;;;;;;7.05;61.44;100898.78;6152198;22;96682;-95
2023/04/08 08:24:13;;;;;;;13.67;11.17;;;;;;;6.61;60.94;100814.00;6128680;22;97453;-93
2023/04/08 08:26:39;;;;;;;12.33;9.90;;;;;;;7.22;61.24;100904.69;6126663;22;101376;-95
2023/04/08 08:29:07;;;;;;;13.82;11.02;;;;;;;7.28;60.90;100901.16;6126169;22;101183;-94
2023/04/08 08:31:33;;;;;;;14.03;10.47;;;;;;;7.15;61.21;100872.53;6126907;22;96786;-95
2023/04/08 08:33:59;;;;;;;16.07;10.17;;;;;;;7.33;61.16;100891.50;6125847;22;97470;-94
2023/04/08 08:36:26;;;;;;;15.25;10.88;;;;;;;7.24;61.36;100866.34;6151577;22;100260;-93
2023/04/08 08:38:53;;;;;;;12.13;10.47;;;;;;;7.21;61.01;100853.34;6150939;22;101160;-94
2023/04/08 08:41:19;;;;;;;13.97;10.33;;;;;;;7.47;60.64;100900.88;6127541;22;96679;-93
2023/04/08 08:43:45;;;;;;;13.93;11.07;;;;;;;7.39;60.72;100881.00;6151928;22;96716;-93
2023/04/08 08:46:11;;;;;;;17.90;11.23;;;;;;;7.15;60.89;100835.13;6154083;22;101638;-93
2023/04/08 08:48:39;;;;;;;12.68;10.30;;;;;;;7.39;60.46;100863.56;6151091;22;101222;-94
2023/04/08 08:51:09;;;;;;;14.18;10.50;;;;;;;7.16;60.83;100845.56;6150822;22;97163;-94
2023/04/08 08:53:35;;;;;;;12.77;9.37;;;;;;;7.24;60.77;100874.19;6152516;22;96814;-94
2023/04/08 08:56:00;;;;;;;14.70;10.57;;;;;;;7.31;60.68;100894.13;6127700;22;101279;-93
2023/04/08 08:58:27;;;;;;;12.13;9.98;;;;;;;7.15;61.05;100871.69;6153208;22;97845;-92
2023/04/08 09:00:52;;;;;;;12.70;10.25;;;;;;;7.07;60.47;100866.56;6156180;22;96784;-92
2023/04/08 09:03:23;;;;;;;12.33;9.97;;;;;;;7.36;60.69;100917.56;6133811;22;96661;-93
2023/04/08 09:05:56;;;;;;;11.93;10.10;;;;;;;7.37;61.20;100925.41;6131627;22;100403;-92
2023/04/08 09:08:25;;;;;;;11.57;10.07;;;;;;;7.47;60.96;100929.63;6134262;22;100871;-93
2023/04/08 09:10:52;;;;;;;13.10;9.63;;;;;;;7.36;61.10;100917.56;6146458;22;96697;-92
2023/04/08 09:13:17;;;;;;;13.73;10.73;;;;;;;7.15;61.13;100875.16;6154703;22;96713;-93
2023/04/08 09:16:02;;;;;;;13.60;10.23;;;;;;;7.51;61.18;100938.31;6163507;22;98205;-93
2023/04/08 09:18:28;;;;;;;13.37;9.77;;;;;;;7.48;61.19;100944.44;6158107;22;99925;-93
2023/04/08 09:20:54;;;;;;;12.32;10.38;;;;;;;7.32;60.94;100908.91;6157098;22;97101;-94
2023/04/08 09:23:19;;;;;;;14.23;10.70;;;;;;;7.29;61.23;100911.56;6180853;22;97286;-93
2023/04/08 09:25:45;;;;;;;16.33;10.43;;;;;;;7.57;60.79;100947.84;6131209;22;100915;-92
2023/04/08 09:28:20;;;;;;;13.45;9.20;;;;;;;7.56;60.66;100938.25;6133559;22;101173;-93
2023/04/08 09:30:46;;;;;;;13.27;10.05;;;;;;;7.66;60.55;100950.34;6132385;22;96673;-93
2023/04/08 09:33:12;;;;;;;13.27;10.10;;;;;;;7.53;60.97;100926.09;6133125;22;97418;-93
2023/04/08 09:35:38;;;;;;;13.00;10.13;;;;;;;7.49;60.53;100927.00;6132182;22;101074;-92
2023/04/08 09:40:45;;;;;;;13.18;10.50;;;;;;;7.56;60.53;100910.38;6196663;22;98476;-93
2023/04/08 09:43:12;;;;;;;12.98;9.73;;;;;;;7.54;60.43;100900.84;6158345;22;97067;-92
2023/04/08 09:45:40;;;;;;;11.18;8.98;;;;;;;7.53;60.04;100897.34;6182326;22;98306;-93
2023/04/08 09:48:11;;;;;;;12.02;9.68;;;;;;;7.86;59.80;100937.88;6133414;22;98736;-94
2023/04/08 09:50:44;;;;;;;11.90;8.75;;;;;;;7.58;58.90;100902.53;6157239;22;97239;-94
2023/04/08 09:53:18;;;;;;;9.90;8.15;;;;;;;7.59;58.63;100901.63;6158818;22;96629;-93
2023/04/08 09:55:50;;;;;;;9.95;8.00;;;;;;;7.57;58.90;100895.59;6155487;22;98384;-93
2023/04/08 09:58:18;;;;;;;12.07;8.45;;;;;;;7.79;59.11;100938.81;6157943;22;98319;-92
2023/04/08 10:00:51;;;;;;;9.82;8.57;;;;;;;7.91;58.84;100975.28;6131865;22;98110;-94
2023/04/08 10:03:45;;;;;;;12.30;8.52;;;;;;;8.01;58.63;100976.03;6133685;22;96757;-94
2023/04/08 10:06:11;;;;;;;11.40;9.07;;;;;;;8.04;58.40;100965.53;6131782;22;101495;-94
2023/04/08 10:08:37;;;;;;;9.82;8.30;;;;;;;8.05;59.08;100979.47;6133942;22;101591;-94
2023/04/08 10:11:03;;;;;;;14.23;10.23;;;;;;;8.12;58.57;100974.13;6156861;22;97058;-93
2023/04/08 10:13:29;;;;;;;17.52;11.23;;;;;;;7.99;59.09;100969.94;6133565;22;96770;-93
2023/04/08 10:16:17;;;;;;;14.20;9.98;;;;;;;7.93;58.96;100980.47;6132768;22;100182;-93
2023/04/08 10:18:43;;;;;;;12.15;9.85;;;;;;;7.87;60.10;100957.03;6132206;22;98907;-94
2023/04/08 10:21:30;;;;;;;16.65;9.65;;;;;;;7.99;58.94;100974.31;6131810;22;97033;-93
2023/04/08 10:24:04;;;;;;;10.68;8.95;;;;;;;7.94;58.95;100962.19;6182289;22;96860;-94
2023/04/08 10:26:56;;;;;;;13.15;10.00;;;;;;;7.89;58.50;100970.97;6158981;22;100236;-93
2023/04/08 10:29:25;;;;;;;12.27;9.15;;;;;;;7.97;59.54;100984.81;6153881;22;101211;-94
2023/04/08 10:31:51;;;;;;;13.13;9.43;;;;;;;8.00;59.08;100973.41;6182508;22;96605;-92
2023/04/08 10:34:17;;;;;;;14.90;10.18;;;;;;;8.05;58.67;100975.09;6158337;22;97634;-92
2023/04/08 10:36:44;;;;;;;10.68;9.43;;;;;;;8.13;58.07;100980.22;6181976;22;98646;-92
2023/04/08 10:39:09;;;;;;;11.07;9.25;;;;;;;8.07;58.17;100957.63;6130114;22;101652;-93
2023/04/08 10:41:41;;;;;;;13.32;9.45;;;;;;;8.25;58.42;100982.66;6131492;22;96919;-93
2023/04/08 10:44:16;;;;;;;;;;;;;;;8.20;58.44;100981.00;6134228;22;96832;-92
2023/04/08 10:46:43;;;;;;;11.15;9.38;;;;;;;8.33;57.88;100961.66;6157158;22;100578;-94
2023/04/08 10:49:08;;;;;;;12.55;9.63;;;;;;;8.45;57.83;100971.09;6132487;22;101534;-93
2023/04/08 10:51:34;;;;;;;14.32;10.30;;;;;;;8.47;57.67;100966.72;6133202;22;96673;-92
2023/04/08 10:54:15;;;;;;;12.38;9.80;;;;;;;8.50;57.83;100962.28;6133658;22;96617;-91
2023/04/08 10:56:48;;;;;;;12.98;9.95;;;;;;;8.40;57.76;100931.91;6155251;22;98354;-92
2023/04/08 10:59:19;;;;;;;12.63;10.27;;;;;;;8.46;58.01;100946.66;6156846;22;100203;-93
2023/04/08 11:01:45;;;;;;;15.27;10.70;;;;;;;8.73;58.27;100955.84;6131583;22;97469;-92
2023/04/08 11:04:12;;;;;;;12.90;9.32;;;;;;;8.56;57.91;100909.00;6133105;22;96793;-93
2023/04/08 11:06:38;;;;;;;12.95;10.15;;;;;;;8.58;57.28;100909.81;6156588;22;101430;-93
2023/04/08 11:09:03;;;;;;;13.70;10.27;;;;;;;8.74;57.57;100934.00;6156791;22;101519;-92
2023/04/08 11:11:30;;;;;;;10.93;8.95;;;;;;;8.81;56.76;100938.22;6157518;22;96658;-92
2023/04/08 11:13:56;;;;;;;11.73;9.25;;;;;;;8.73;56.66;100927.03;6132797;22;97234;-92
2023/04/08 11:16:21;;;;;;;11.88;9.23;;;;;;;8.70;56.13;100927.97;6179929;22;100866;-94
2023/04/08 11:18:48;;;;;;;13.30;10.43;;;;;;;8.75;56.40;100939.19;6156705;22;98188;-93